Varamo — C4SQ2 — position and weather

sailwx.info

Track history (hours):
 
Tides and Currents Weather Stations Pressure Air Temp Water Temp Dewpoint Dewpoint Depression Visibility Wind Speed Wind Dir Waves Ship Positions

Varamo

Last reported at 2017-Oct-19 18:36 UTC. Time now 2017-Oct-19 20:01 UTC.
Position N 14°40' W 061°17'.

Length 166 m; draft 7.8 m.

Type: Ship (hazmat cat C). MMSI: 210950000.

Date/timePositionNaut miles runAvg speedWind from/ knotsBaromVisibWave heightAir tempDewpointWater temp
2017-Oct-19 18:36N 14°40' W 061°17'212.4
2017-Oct-19 18:28N 14°39' W 061°15'613.4
2017-Oct-19 18:00N 14°36' W 061°10'612.0
2017-Oct-19 17:30N 14°35' W 061°04'1 1.3
2017-Oct-19 16:58N 14°36' W 061°03'0 0.0
2017-Oct-19 16:28N 14°36' W 061°03'0 0.0
2017-Oct-19 16:00N 14°36' W 061°03'0 0.0
2017-Oct-19 15:27N 14°36' W 061°03'0 0.0
2017-Oct-19 14:59N 14°36' W 061°03'0 0.0
2017-Oct-19 14:29N 14°36' W 061°03'0 0.0
2017-Oct-19 13:56N 14°36' W 061°03'0 0.0
2017-Oct-19 13:29N 14°36' W 061°03'0 0.0
2017-Oct-19 12:59N 14°36' W 061°03'0 0.0
2017-Oct-19 12:29N 14°36' W 061°03'0 0.0
2017-Oct-19 11:59N 14°36' W 061°03'0 0.0
2017-Oct-19 11:29N 14°36' W 061°03'0 0.0
2017-Oct-19 10:47N 14°36' W 061°03'0 0.0
2017-Oct-19 10:17N 14°36' W 061°03'0 1.4
2017-Oct-19 10:00N 14°35' W 061°03'3 5.6
2017-Oct-19 09:30N 14°35' W 061°06'510.1
2017-Oct-19 09:00N 14°38' W 061°11'816.5
2017-Oct-19 08:29N 14°44' W 061°17'  
2017-Oct-14 04:54N 39°28' W 031°59'1116.1
2017-Oct-14 04:13N 39°36' W 031°48'316.0
2017-Oct-14 04:00N 39°38' W 031°45'815.9
2017-Oct-14 03:30N 39°43' W 031°37'815.6
2017-Oct-14 03:00N 39°46' W 031°28'815.0
2017-Oct-14 02:30N 39°49' W 031°19'714.7
2017-Oct-14 02:01N 39°52' W 031°10'1115.3
2017-Oct-14 01:19N 39°56' W 030°58'515.5
2017-Oct-14 01:00N 39°58' W 030°52'815.1
2017-Oct-14 00:30N 40°01' W 030°43'38816.8
2017-Oct-13 01:23N 42°36' W 022°49'1018.1
2017-Oct-13 00:52N 42°39' W 022°37'4117.9
2017-Oct-12 22:34N 42°56' W 021°46'117.2
2017-Oct-12 22:30N 42°56' W 021°44'1517.3
2017-Oct-12 21:40N 43°02' W 021°26'317.3
2017-Oct-12 21:30N 43°03' W 021°22'1217.3
2017-Oct-12 20:50N 43°08' W 021°08'717.2
2017-Oct-12 20:28N 43°10' W 020°60'1117.2
2017-Oct-12 19:50N 43°15' W 020°46'617.2
2017-Oct-12 19:30N 43°17' W 020°39'7217.1
2017-Oct-12 15:16N 43°46' W 019°08'73417.1
2017-Oct-10 20:27N 49°48' W 003°36'715.0
2017-Oct-10 20:01N 49°52' W 003°27'815.3
2017-Oct-10 19:31N 49°54' W 003°16'816.0
2017-Oct-10 19:00N 49°57' W 003°04'816.7
2017-Oct-10 18:30N 49°59' W 002°51'1017.6
2017-Oct-10 17:56N 50°01' W 002°36'8318.8
2017-Oct-10 13:31N 49°41' W 000°31'017.5
2017-Oct-10 13:30N 49°41' W 000°31'816.6
2017-Oct-10 13:00N 49°36' W 000°21'817.0
2017-Oct-10 12:30N 49°31' W 000°10'714.8
2017-Oct-10 12:00N 49°27' W 000°00'713.5
2017-Oct-10 11:31N 49°26' E 000°10'510.7
2017-Oct-10 11:00N 49°26' E 000°18'510.5
2017-Oct-10 10:30N 49°28' E 000°26'2 0.2
2017-Oct-10 00:36N 49°28' E 000°28'1 6.7
2017-Oct-10 00:30N 49°28' E 000°27'713.3
2017-Oct-10 00:00N 49°26' E 000°17'713.8
2017-Oct-09 23:31N 49°26' E 000°07'713.5
2017-Oct-09 23:00N 49°28' W 000°03'510.0
2017-Oct-09 22:30N 49°30' W 000°10'714.8
2017-Oct-09 22:00N 49°35' W 000°18'917.2
2017-Oct-09 21:28N 49°44' W 000°22'817.1
2017-Oct-09 21:00N 49°52' W 000°22'2414.5
2017-Oct-09 19:22N 50°15' W 000°16'515.1
2017-Oct-09 19:01N 50°21' W 000°13'  
Track history (hours):
 
Tides and Currents Weather Stations Pressure Air Temp Water Temp Dewpoint Dewpoint Depression Visibility Wind Speed Wind Dir Waves Ship Positions

Varamo

Last reported at 2017-Oct-19 18:36 UTC. Time now 2017-Oct-19 20:01 UTC.
Position N 14°40' W 061°17'.

Length 166 m; draft 7.8 m.

Type: Ship (hazmat cat C). MMSI: 210950000.

Date/timePositionNaut miles runAvg speedWind from/ knotsBaromVisibWave heightAir tempDewpointWater temp
2017-Oct-19 18:36N 14°40' W 061°17'212.4
2017-Oct-19 18:28N 14°39' W 061°15'613.4
2017-Oct-19 18:00N 14°36' W 061°10'612.0
2017-Oct-19 17:30N 14°35' W 061°04'1 1.3
2017-Oct-19 16:58N 14°36' W 061°03'0 0.0
2017-Oct-19 16:28N 14°36' W 061°03'0 0.0
2017-Oct-19 16:00N 14°36' W 061°03'0 0.0
2017-Oct-19 15:27N 14°36' W 061°03'0 0.0
2017-Oct-19 14:59N 14°36' W 061°03'0 0.0
2017-Oct-19 14:29N 14°36' W 061°03'0 0.0
2017-Oct-19 13:56N 14°36' W 061°03'0 0.0
2017-Oct-19 13:29N 14°36' W 061°03'0 0.0
2017-Oct-19 12:59N 14°36' W 061°03'0 0.0
2017-Oct-19 12:29N 14°36' W 061°03'0 0.0
2017-Oct-19 11:59N 14°36' W 061°03'0 0.0
2017-Oct-19 11:29N 14°36' W 061°03'0 0.0
2017-Oct-19 10:47N 14°36' W 061°03'0 0.0
2017-Oct-19 10:17N 14°36' W 061°03'0 1.4
2017-Oct-19 10:00N 14°35' W 061°03'3 5.6
2017-Oct-19 09:30N 14°35' W 061°06'510.1
2017-Oct-19 09:00N 14°38' W 061°11'816.5
2017-Oct-19 08:29N 14°44' W 061°17'  
2017-Oct-14 04:54N 39°28' W 031°59'1116.1
2017-Oct-14 04:13N 39°36' W 031°48'316.0
2017-Oct-14 04:00N 39°38' W 031°45'815.9
2017-Oct-14 03:30N 39°43' W 031°37'815.6
2017-Oct-14 03:00N 39°46' W 031°28'815.0
2017-Oct-14 02:30N 39°49' W 031°19'714.7
2017-Oct-14 02:01N 39°52' W 031°10'1115.3
2017-Oct-14 01:19N 39°56' W 030°58'515.5
2017-Oct-14 01:00N 39°58' W 030°52'815.1
2017-Oct-14 00:30N 40°01' W 030°43'38816.8
2017-Oct-13 01:23N 42°36' W 022°49'1018.1
2017-Oct-13 00:52N 42°39' W 022°37'4117.9
2017-Oct-12 22:34N 42°56' W 021°46'117.2
2017-Oct-12 22:30N 42°56' W 021°44'1517.3
2017-Oct-12 21:40N 43°02' W 021°26'317.3
2017-Oct-12 21:30N 43°03' W 021°22'1217.3
2017-Oct-12 20:50N 43°08' W 021°08'717.2
2017-Oct-12 20:28N 43°10' W 020°60'1117.2
2017-Oct-12 19:50N 43°15' W 020°46'617.2
2017-Oct-12 19:30N 43°17' W 020°39'7217.1
2017-Oct-12 15:16N 43°46' W 019°08'73417.1
2017-Oct-10 20:27N 49°48' W 003°36'715.0
2017-Oct-10 20:01N 49°52' W 003°27'815.3
2017-Oct-10 19:31N 49°54' W 003°16'816.0
2017-Oct-10 19:00N 49°57' W 003°04'816.7
2017-Oct-10 18:30N 49°59' W 002°51'1017.6
2017-Oct-10 17:56N 50°01' W 002°36'8318.8
2017-Oct-10 13:31N 49°41' W 000°31'017.5
2017-Oct-10 13:30N 49°41' W 000°31'816.6
2017-Oct-10 13:00N 49°36' W 000°21'817.0
2017-Oct-10 12:30N 49°31' W 000°10'714.8
2017-Oct-10 12:00N 49°27' W 000°00'713.5
2017-Oct-10 11:31N 49°26' E 000°10'510.7
2017-Oct-10 11:00N 49°26' E 000°18'510.5
2017-Oct-10 10:30N 49°28' E 000°26'2 0.2
2017-Oct-10 00:36N 49°28' E 000°28'1 6.7
2017-Oct-10 00:30N 49°28' E 000°27'713.3
2017-Oct-10 00:00N 49°26' E 000°17'713.8
2017-Oct-09 23:31N 49°26' E 000°07'713.5
2017-Oct-09 23:00N 49°28' W 000°03'510.0
2017-Oct-09 22:30N 49°30' W 000°10'714.8
2017-Oct-09 22:00N 49°35' W 000°18'917.2
2017-Oct-09 21:28N 49°44' W 000°22'817.1
2017-Oct-09 21:00N 49°52' W 000°22'2414.5
2017-Oct-09 19:22N 50°15' W 000°16'515.1
2017-Oct-09 19:01N 50°21' W 000°13'  

Dump ship's entire track history